Terminal Aerodrome Forecast
Issued by NWS

Home | Current Version | Previous Version | Text Only | Print | Product List | Glossary On
Versions: 1 2 3 4 5 6 7 8 9 10 11 12 13 14 15 16 17 18 19 20 21
000
FTUS43 KBIS 201700
TAFMOT
TAF
KMOT 201720Z 2018/2118 23008KT P6SM BKN150
     FM202100 16013KT P6SM VCTS BKN060CB
      TEMPO 2022/2101 2SM TSRA BKN030CB
     FM210300 30011KT P6SM BKN050=

USA.gov is the U.S. government's official web portal to all federal, state and local government web resources and services.